KOTM/OTM METAR and TAF weather

Enter ICAO airport designator
Station Type Date Time Source
KOTM METAR 2022/12/04 10:53 UTC NOAA

KOTM 041053Z AUTO 22009KT 10SM CLR M06/M11 A3027 RMK AO2 SLP264 T10561106


Station Type Date Time Source
KOTM Decoded METAR 2022/12/04 10:53 UTC NOAA

OTTUMWA INDUSTRIAL AIRPORT, IA, United States (KOTM) 41-06N 092-27W 256M
Dec 04, 2022 - 05:53 AM EST / 2022.12.04 1053 UTC
Wind: from the SW (220 degrees) at 10 MPH (9 KT):0
Visibility: 10 mile(s):0
Sky conditions: clear
Temperature: 21.9 F (-5.6 C)
Windchill: 10 F (-12 C):1
Dew Point: 12.9 F (-10.6 C)
Relative Humidity: 67%
Pressure (altimeter): 30.27 in. Hg (1025 hPa)
ob: KOTM 041053Z AUTO 22009KT 10SM CLR M06/M11 A3027 RMK AO2 SLP264 T10561106
cycle: 11

Station Type Date Time Source
KOTM TAF 2022/12/04 12:22 UTC NOAA

TAF KOTM 041122Z 0412/0512 23009KT P6SM FEW250
FM050000 19007KT P6SM FEW250

Example: see airport list